sensor_id;sensor_type;location;lat;lon;timestamp;pressure;altitude;pressure_sealevel;temperature;humidity
80124;BME280;69433;48.642;9.142;2023-07-20T00:01:43;96909.59;;;26.19;35.59
80124;BME280;69433;48.642;9.142;2023-07-20T00:04:10;96910.34;;;26.20;35.58
80124;BME280;69433;48.642;9.142;2023-07-20T00:06:35;96908.84;;;26.19;35.70
80124;BME280;69433;48.642;9.142;2023-07-20T00:09:00;96904.63;;;26.18;35.79
80124;BME280;69433;48.642;9.142;2023-07-20T00:11:26;96900.44;;;26.17;35.46
80124;BME280;69433;48.642;9.142;2023-07-20T00:13:52;96911.97;;;26.17;35.69
80124;BME280;69433;48.642;9.142;2023-07-20T00:16:20;96904.31;;;26.16;35.27
80124;BME280;69433;48.642;9.142;2023-07-20T00:18:46;96895.91;;;26.14;35.66
80124;BME280;69433;48.642;9.142;2023-07-20T00:21:11;96900.09;;;26.15;35.52
80124;BME280;69433;48.642;9.142;2023-07-20T00:23:37;96904.41;;;26.12;35.41
80124;BME280;69433;48.642;9.142;2023-07-20T00:26:03;96900.22;;;26.11;35.39
80124;BME280;69433;48.642;9.142;2023-07-20T00:28:28;96899.47;;;26.11;35.38
80124;BME280;69433;48.642;9.142;2023-07-20T00:30:54;96897.53;;;26.11;35.23
80124;BME280;69433;48.642;9.142;2023-07-20T00:33:19;96904.50;;;26.09;35.30
80124;BME280;69433;48.642;9.142;2023-07-20T00:35:44;96903.75;;;26.08;35.13
80124;BME280;69433;48.642;9.142;2023-07-20T00:38:10;96899.13;;;26.09;34.92
80124;BME280;69433;48.642;9.142;2023-07-20T00:40:40;96906.78;;;26.10;35.25
80124;BME280;69433;48.642;9.142;2023-07-20T00:43:05;96902.25;;;26.07;34.84
80124;BME280;69433;48.642;9.142;2023-07-20T00:45:33;96902.38;;;26.04;34.90
80124;BME280;69433;48.642;9.142;2023-07-20T00:47:58;96899.34;;;26.02;34.78
80124;BME280;69433;48.642;9.142;2023-07-20T00:50:25;96906.25;;;26.03;34.64
80124;BME280;69433;48.642;9.142;2023-07-20T00:52:51;96903.22;;;26.01;34.82
80124;BME280;69433;48.642;9.142;2023-07-20T00:55:18;96907.41;;;26.02;34.90
80124;BME280;69433;48.642;9.142;2023-07-20T00:57:44;96900.50;;;26.01;34.80
80124;BME280;69433;48.642;9.142;2023-07-20T01:00:10;96904.38;;;26.00;34.56
80124;BME280;69433;48.642;9.142;2023-07-20T01:02:35;96907.50;;;25.98;34.84
80124;BME280;69433;48.642;9.142;2023-07-20T01:05:05;96906.41;;;25.96;34.83
80124;BME280;69433;48.642;9.142;2023-07-20T01:07:35;96904.94;;;25.95;34.87
80124;BME280;69433;48.642;9.142;2023-07-20T01:12:43;96903.06;;;25.92;34.86
80124;BME280;69433;48.642;9.142;2023-07-20T01:15:11;96911.59;;;25.90;34.62
80124;BME280;69433;48.642;9.142;2023-07-20T01:17:38;96910.41;;;25.91;34.53
80124;BME280;69433;48.642;9.142;2023-07-20T01:20:06;96905.09;;;25.87;34.54
80124;BME280;69433;48.642;9.142;2023-07-20T01:25:40;96908.88;;;25.90;34.66
80124;BME280;69433;48.642;9.142;2023-07-20T01:28:40;96909.31;;;25.88;34.57
80124;BME280;69433;48.642;9.142;2023-07-20T01:31:25;96904.34;;;25.87;34.59
80124;BME280;69433;48.642;9.142;2023-07-20T01:33:54;96907.16;;;25.83;34.45
80124;BME280;69433;48.642;9.142;2023-07-20T01:36:21;96909.50;;;25.81;34.78
80124;BME280;69433;48.642;9.142;2023-07-20T01:38:47;96916.75;;;25.84;34.58
80124;BME280;69433;48.642;9.142;2023-07-20T01:41:13;96906.81;;;25.81;34.51
80124;BME280;69433;48.642;9.142;2023-07-20T01:43:39;96901.44;;;25.81;34.39
80124;BME280;69433;48.642;9.142;2023-07-20T01:46:05;96903.38;;;25.81;34.32
80124;BME280;69433;48.642;9.142;2023-07-20T01:48:31;96902.63;;;25.80;34.52
80124;BME280;69433;48.642;9.142;2023-07-20T01:50:56;96898.81;;;25.78;34.67
80124;BME280;69433;48.642;9.142;2023-07-20T01:53:22;96906.91;;;25.78;34.52
80124;BME280;69433;48.642;9.142;2023-07-20T01:55:47;96905.84;;;25.75;34.57
80124;BME280;69433;48.642;9.142;2023-07-20T01:58:13;96907.78;;;25.75;34.78
80124;BME280;69433;48.642;9.142;2023-07-20T02:00:38;96898.53;;;25.76;34.73
80124;BME280;69433;48.642;9.142;2023-07-20T02:03:04;96904.63;;;25.76;34.45
80124;BME280;69433;48.642;9.142;2023-07-20T02:05:29;96902.06;;;25.73;34.51
80124;BME280;69433;48.642;9.142;2023-07-20T02:07:55;96909.78;;;25.71;34.77
80124;BME280;69433;48.642;9.142;2023-07-20T02:10:21;96915.53;;;25.73;34.77
80124;BME280;69433;48.642;9.142;2023-07-20T02:12:46;96907.09;;;25.71;34.71
80124;BME280;69433;48.642;9.142;2023-07-20T02:15:12;96907.09;;;25.71;34.48
80124;BME280;69433;48.642;9.142;2023-07-20T02:17:39;96899.44;;;25.69;34.57
80124;BME280;69433;48.642;9.142;2023-07-20T02:20:09;96904.06;;;25.69;34.94
80124;BME280;69433;48.642;9.142;2023-07-20T02:22:39;96908.41;;;25.66;34.58
80124;BME280;69433;48.642;9.142;2023-07-20T02:25:05;96898.03;;;25.65;35.00
80124;BME280;69433;48.642;9.142;2023-07-20T02:27:32;96903.84;;;25.63;34.89
80124;BME280;69433;48.642;9.142;2023-07-20T02:29:57;96886.19;;;25.62;34.69
80124;BME280;69433;48.642;9.142;2023-07-20T02:32:23;96896.94;;;25.62;35.17
80124;BME280;69433;48.642;9.142;2023-07-20T02:34:48;96899.66;;;25.62;35.11
80124;BME280;69433;48.642;9.142;2023-07-20T02:37:13;96899.66;;;25.62;35.15
80124;BME280;69433;48.642;9.142;2023-07-20T02:39:43;96896.63;;;25.60;35.14
80124;BME280;69433;48.642;9.142;2023-07-20T02:42:08;96907.38;;;25.60;35.17
80124;BME280;69433;48.642;9.142;2023-07-20T02:44:34;96906.25;;;25.58;35.11
80124;BME280;69433;48.642;9.142;2023-07-20T02:46:59;96917.47;;;25.56;35.32
80124;BME280;69433;48.642;9.142;2023-07-20T02:49:24;96914.78;;;25.56;35.45
80124;BME280;69433;48.642;9.142;2023-07-20T02:51:50;96913.28;;;25.55;35.25
80124;BME280;69433;48.642;9.142;2023-07-20T02:54:15;96921.75;;;25.54;35.57
80124;BME280;69433;48.642;9.142;2023-07-20T02:56:40;96910.25;;;25.53;35.11
80124;BME280;69433;48.642;9.142;2023-07-20T02:59:06;96924.03;;;25.55;35.61
80124;BME280;69433;48.642;9.142;2023-07-20T03:01:31;96915.28;;;25.51;35.66
80124;BME280;69433;48.642;9.142;2023-07-20T03:03:56;96920.34;;;25.49;35.42
80124;BME280;69433;48.642;9.142;2023-07-20T03:06:22;96911.50;;;25.48;35.64
80124;BME280;69433;48.642;9.142;2023-07-20T03:08:48;96918.81;;;25.48;35.44
80124;BME280;69433;48.642;9.142;2023-07-20T03:11:17;96918.81;;;25.48;35.60
80124;BME280;69433;48.642;9.142;2023-07-20T03:13:45;96923.13;;;25.45;35.39
80124;BME280;69433;48.642;9.142;2023-07-20T03:16:11;96915.47;;;25.44;35.02
80124;BME280;69433;48.642;9.142;2023-07-20T03:18:38;96917.84;;;25.42;35.30
80124;BME280;69433;48.642;9.142;2023-07-20T03:21:04;96922.88;;;25.40;35.54
80124;BME280;69433;48.642;9.142;2023-07-20T03:23:30;96928.59;;;25.42;35.67
80124;BME280;69433;48.642;9.142;2023-07-20T03:25:55;96928.19;;;25.43;35.19
80124;BME280;69433;48.642;9.142;2023-07-20T03:28:20;96928.66;;;25.38;34.59
80124;BME280;69433;48.642;9.142;2023-07-20T03:30:53;96927.91;;;25.38;34.53
80124;BME280;69433;48.642;9.142;2023-07-20T03:33:18;96928.03;;;25.34;34.78
80124;BME280;69433;48.642;9.142;2023-07-20T03:35:43;96928.03;;;25.34;34.53
80124;BME280;69433;48.642;9.142;2023-07-20T03:38:09;96932.84;;;25.27;34.16
80124;BME280;69433;48.642;9.142;2023-07-20T03:40:34;96929.81;;;25.25;34.09
80124;BME280;69433;48.642;9.142;2023-07-20T03:42:59;96935.34;;;25.18;34.38
80124;BME280;69433;48.642;9.142;2023-07-20T03:45:24;96929.63;;;25.16;34.05
80124;BME280;69433;48.642;9.142;2023-07-20T03:47:50;96928.63;;;25.09;34.01
80124;BME280;69433;48.642;9.142;2023-07-20T03:50:15;96939.38;;;25.09;34.22
80124;BME280;69433;48.642;9.142;2023-07-20T03:52:41;96941.47;;;25.02;34.47
80124;BME280;69433;48.642;9.142;2023-07-20T03:55:06;96941.47;;;25.02;34.48
80124;BME280;69433;48.642;9.142;2023-07-20T03:57:32;96945.75;;;24.99;34.68
80124;BME280;69433;48.642;9.142;2023-07-20T03:59:59;96948.97;;;24.94;35.13
80124;BME280;69433;48.642;9.142;2023-07-20T04:02:24;96945.94;;;24.92;34.88
80124;BME280;69433;48.642;9.142;2023-07-20T04:04:50;96949.88;;;24.88;35.51
80124;BME280;69433;48.642;9.142;2023-07-20T04:07:16;96952.56;;;24.88;35.37
80124;BME280;69433;48.642;9.142;2023-07-20T04:09:41;96950.75;;;24.81;35.73
80124;BME280;69433;48.642;9.142;2023-07-20T04:12:07;96945.38;;;24.81;35.67
80124;BME280;69433;48.642;9.142;2023-07-20T04:14:32;96943.22;;;24.76;35.73
80124;BME280;69433;48.642;9.142;2023-07-20T04:16:57;96937.84;;;24.76;36.33
80124;BME280;69433;48.642;9.142;2023-07-20T04:19:23;96946.16;;;24.82;36.01
80124;BME280;69433;48.642;9.142;2023-07-20T04:21:48;96952.38;;;24.78;35.67
80124;BME280;69433;48.642;9.142;2023-07-20T04:24:13;96952.44;;;24.75;35.85
80124;BME280;69433;48.642;9.142;2023-07-20T04:26:38;96955.13;;;24.75;35.61
80124;BME280;69433;48.642;9.142;2023-07-20T04:29:04;96947.38;;;24.61;35.91
80124;BME280;69433;48.642;9.142;2023-07-20T04:31:29;96949.03;;;24.55;36.39
80124;BME280;69433;48.642;9.142;2023-07-20T04:33:57;96952.44;;;24.59;36.23
80124;BME280;69433;48.642;9.142;2023-07-20T04:36:22;96950.97;;;24.54;35.90
80124;BME280;69433;48.642;9.142;2023-07-20T04:38:48;96960.78;;;24.45;36.14
80124;BME280;69433;48.642;9.142;2023-07-20T04:41:13;96954.75;;;24.40;36.10
80124;BME280;69433;48.642;9.142;2023-07-20T04:43:43;96948.72;;;24.33;36.04
80124;BME280;69433;48.642;9.142;2023-07-20T04:46:12;96950.19;;;24.37;36.29
80124;BME280;69433;48.642;9.142;2023-07-20T04:48:37;96955.56;;;24.37;35.92
80124;BME280;69433;48.642;9.142;2023-07-20T04:51:03;96944.81;;;24.37;36.21
80124;BME280;69433;48.642;9.142;2023-07-20T04:53:28;96948.72;;;24.33;36.30
80124;BME280;69433;48.642;9.142;2023-07-20T04:55:54;96950.34;;;24.30;36.16
80124;BME280;69433;48.642;9.142;2023-07-20T04:58:20;96946.38;;;24.35;35.78
80124;BME280;69433;48.642;9.142;2023-07-20T05:00:48;96960.94;;;24.37;36.20
80124;BME280;69433;48.642;9.142;2023-07-20T05:03:13;96961.75;;;24.34;36.13
80124;BME280;69433;48.642;9.142;2023-07-20T05:05:39;96960.25;;;24.33;35.86
80124;BME280;69433;48.642;9.142;2023-07-20T05:08:04;96959.41;;;24.36;36.07
80124;BME280;69433;48.642;9.142;2023-07-20T05:10:29;96951.09;;;24.31;36.04
80124;BME280;69433;48.642;9.142;2023-07-20T05:12:56;96953.09;;;24.27;36.15
80124;BME280;69433;48.642;9.142;2023-07-20T05:15:21;96960.75;;;24.28;36.27
80124;BME280;69433;48.642;9.142;2023-07-20T05:17:46;96953.16;;;24.23;36.34
80124;BME280;69433;48.642;9.142;2023-07-20T05:20:14;96952.84;;;24.18;36.29
80124;BME280;69433;48.642;9.142;2023-07-20T05:22:39;96966.25;;;24.21;36.34
80124;BME280;69433;48.642;9.142;2023-07-20T05:25:09;96952.09;;;24.17;36.29
80124;BME280;69433;48.642;9.142;2023-07-20T05:27:38;96963.56;;;24.21;36.58
80124;BME280;69433;48.642;9.142;2023-07-20T05:30:06;96967.06;;;24.18;36.57
80124;BME280;69433;48.642;9.142;2023-07-20T05:32:32;96953.59;;;24.22;36.55
80124;BME280;69433;48.642;9.142;2023-07-20T05:34:58;96949.00;;;24.19;36.23
80124;BME280;69433;48.642;9.142;2023-07-20T05:37:23;96953.50;;;24.25;36.62
80124;BME280;69433;48.642;9.142;2023-07-20T05:39:50;96951.28;;;24.20;36.89
80124;BME280;69433;48.642;9.142;2023-07-20T05:42:16;96949.75;;;24.19;36.64
80124;BME280;69433;48.642;9.142;2023-07-20T05:44:41;96952.44;;;24.19;37.11
80124;BME280;69433;48.642;9.142;2023-07-20T05:47:07;96942.88;;;24.18;36.86
80124;BME280;69433;48.642;9.142;2023-07-20T05:49:33;96945.56;;;24.18;36.84
80124;BME280;69433;48.642;9.142;2023-07-20T05:51:59;96947.47;;;24.21;37.07
80124;BME280;69433;48.642;9.142;2023-07-20T05:54:26;96952.44;;;24.19;37.14
80124;BME280;69433;48.642;9.142;2023-07-20T05:56:51;96956.66;;;24.20;37.12
80124;BME280;69433;48.642;9.142;2023-07-20T05:59:17;96953.28;;;24.16;37.01
80124;BME280;69433;48.642;9.142;2023-07-20T06:01:43;96959.81;;;24.15;36.92
80124;BME280;69433;48.642;9.142;2023-07-20T06:04:08;96955.00;;;24.26;37.07
80124;BME280;69433;48.642;9.142;2023-07-20T06:06:34;96957.53;;;24.33;36.74
80124;BME280;69433;48.642;9.142;2023-07-20T06:09:00;96959.41;;;24.36;37.10
80124;BME280;69433;48.642;9.142;2023-07-20T06:11:30;96964.56;;;24.47;37.55
80124;BME280;69433;48.642;9.142;2023-07-20T06:13:56;96963.66;;;24.54;37.42
80124;BME280;69433;48.642;9.142;2023-07-20T06:16:21;96965.00;;;24.62;37.05
80124;BME280;69433;48.642;9.142;2023-07-20T06:18:47;96966.81;;;24.68;37.52
80124;BME280;69433;48.642;9.142;2023-07-20T06:21:12;96960.94;;;24.73;37.08
80124;BME280;69433;48.642;9.142;2023-07-20T06:23:38;96957.81;;;24.75;37.51
80124;BME280;69433;48.642;9.142;2023-07-20T06:26:03;96963.03;;;24.82;36.96
80124;BME280;69433;48.642;9.142;2023-07-20T06:28:28;96966.06;;;24.84;37.41
80124;BME280;69433;48.642;9.142;2023-07-20T06:31:02;96965.16;;;24.91;37.02
80124;BME280;69433;48.642;9.142;2023-07-20T06:33:27;96959.72;;;24.94;37.20
80124;BME280;69433;48.642;9.142;2023-07-20T06:35:53;96963.94;;;24.95;36.92
80124;BME280;69433;48.642;9.142;2023-07-20T06:38:19;96958.03;;;25.00;36.88
80124;BME280;69433;48.642;9.142;2023-07-20T06:40:47;96951.81;;;25.03;36.92
80124;BME280;69433;48.642;9.142;2023-07-20T06:43:12;96952.81;;;25.09;36.85
80124;BME280;69433;48.642;9.142;2023-07-20T06:45:39;96956.97;;;25.14;36.73
80124;BME280;69433;48.642;9.142;2023-07-20T06:48:05;96964.63;;;25.16;36.99
80124;BME280;69433;48.642;9.142;2023-07-20T06:50:30;96962.56;;;25.20;37.13
80124;BME280;69433;48.642;9.142;2023-07-20T06:52:55;96962.09;;;25.25;36.85
80124;BME280;69433;48.642;9.142;2023-07-20T06:55:21;96952.44;;;25.27;37.13
80124;BME280;69433;48.642;9.142;2023-07-20T06:57:46;96947.28;;;25.33;36.81
80124;BME280;69433;48.642;9.142;2023-07-20T07:00:12;96949.44;;;25.38;36.65
80124;BME280;69433;48.642;9.142;2023-07-20T07:02:37;96953.16;;;25.44;36.97
80124;BME280;69433;48.642;9.142;2023-07-20T07:05:03;96951.13;;;25.48;36.79
80124;BME280;69433;48.642;9.142;2023-07-20T07:07:28;96954.81;;;25.54;36.58
80124;BME280;69433;48.642;9.142;2023-07-20T07:09:54;96956.66;;;25.57;36.73
80124;BME280;69433;48.642;9.142;2023-07-20T07:12:19;96950.47;;;25.60;36.95
80124;BME280;69433;48.642;9.142;2023-07-20T07:14:44;96956.53;;;25.64;36.44
80124;BME280;69433;48.642;9.142;2023-07-20T07:17:09;96951.47;;;25.66;36.49
80124;BME280;69433;48.642;9.142;2023-07-20T07:19:35;96950.59;;;25.69;36.45
80124;BME280;69433;48.642;9.142;2023-07-20T07:22:01;96939.75;;;25.73;36.53
80124;BME280;69433;48.642;9.142;2023-07-20T07:24:26;96953.09;;;25.76;36.53
80124;BME280;69433;48.642;9.142;2023-07-20T07:26:53;96942.66;;;25.78;36.69
80124;BME280;69433;48.642;9.142;2023-07-20T07:29:18;96943.34;;;25.82;36.74
80124;BME280;69433;48.642;9.142;2023-07-20T07:31:43;96932.47;;;25.86;36.81
80124;BME280;69433;48.642;9.142;2023-07-20T07:34:08;96935.47;;;25.88;36.62
80124;BME280;69433;48.642;9.142;2023-07-20T07:36:34;96941.97;;;25.91;36.45
80124;BME280;69433;48.642;9.142;2023-07-20T07:38:59;96932.72;;;25.92;36.43
80124;BME280;69433;48.642;9.142;2023-07-20T07:41:25;96938.44;;;25.94;36.55
80124;BME280;69433;48.642;9.142;2023-07-20T07:43:50;96940.25;;;25.97;36.70
80124;BME280;69433;48.642;9.142;2023-07-20T07:46:16;96936.38;;;25.98;36.44
80124;BME280;69433;48.642;9.142;2023-07-20T07:48:42;96936.72;;;26.00;36.63
80124;BME280;69433;48.642;9.142;2023-07-20T07:51:07;96935.88;;;26.03;36.70
80124;BME280;69433;48.642;9.142;2023-07-20T07:53:32;96936.19;;;26.05;36.83
80124;BME280;69433;48.642;9.142;2023-07-20T07:55:58;96931.88;;;26.07;36.77
80124;BME280;69433;48.642;9.142;2023-07-20T07:58:24;96938.44;;;26.06;36.77
80124;BME280;69433;48.642;9.142;2023-07-20T08:00:49;96940.72;;;26.08;36.61
80124;BME280;69433;48.642;9.142;2023-07-20T08:03:14;96943.41;;;26.08;36.59
80124;BME280;69433;48.642;9.142;2023-07-20T08:05:40;96940.72;;;26.08;36.64
80124;BME280;69433;48.642;9.142;2023-07-20T08:08:05;96939.19;;;26.07;36.67
80124;BME280;69433;48.642;9.142;2023-07-20T08:10:30;96937.59;;;26.09;36.77
80124;BME280;69433;48.642;9.142;2023-07-20T08:12:56;96941.72;;;26.14;36.58
80124;BME280;69433;48.642;9.142;2023-07-20T08:15:21;96937.06;;;26.14;36.72
80124;BME280;69433;48.642;9.142;2023-07-20T08:17:47;96934.69;;;26.16;36.58
80124;BME280;69433;48.642;9.142;2023-07-20T08:20:14;96935.47;;;26.17;36.72
80124;BME280;69433;48.642;9.142;2023-07-20T08:22:41;96932.34;;;26.18;36.80
80124;BME280;69433;48.642;9.142;2023-07-20T08:25:07;96936.22;;;26.17;36.80
80124;BME280;69433;48.642;9.142;2023-07-20T08:27:33;96935.78;;;26.19;36.92
80124;BME280;69433;48.642;9.142;2023-07-20T08:29:58;96936.56;;;26.19;36.70
80124;BME280;69433;48.642;9.142;2023-07-20T08:32:23;96934.19;;;26.21;36.84
80124;BME280;69433;48.642;9.142;2023-07-20T08:34:49;96935.25;;;26.24;36.85
80124;BME280;69433;48.642;9.142;2023-07-20T08:37:14;96933.25;;;26.28;36.76
80124;BME280;69433;48.642;9.142;2023-07-20T08:39:49;96931.66;;;26.31;36.86
80124;BME280;69433;48.642;9.142;2023-07-20T08:42:15;96927.78;;;26.32;36.65
80124;BME280;69433;48.642;9.142;2023-07-20T08:44:42;96927.66;;;26.35;36.86
80124;BME280;69433;48.642;9.142;2023-07-20T08:47:10;96923.56;;;26.31;36.71
80124;BME280;69433;48.642;9.142;2023-07-20T08:49:39;96932.06;;;26.29;36.52
80124;BME280;69433;48.642;9.142;2023-07-20T08:52:05;96934.81;;;26.25;36.47
80124;BME280;69433;48.642;9.142;2023-07-20T08:54:31;96931.75;;;26.27;36.21
80124;BME280;69433;48.642;9.142;2023-07-20T08:57:04;96931.38;;;26.25;36.40
80124;BME280;69433;48.642;9.142;2023-07-20T08:59:29;96930.19;;;26.26;36.28
80124;BME280;69433;48.642;9.142;2023-07-20T09:01:56;96924.81;;;26.26;36.16
80124;BME280;69433;48.642;9.142;2023-07-20T09:04:22;96929.38;;;26.29;36.41
80124;BME280;69433;48.642;9.142;2023-07-20T09:06:50;96921.78;;;26.24;35.97
80124;BME280;69433;48.642;9.142;2023-07-20T09:09:16;96927.91;;;26.24;35.94
80124;BME280;69433;48.642;9.142;2023-07-20T09:11:41;96920.28;;;26.23;35.89
80124;BME280;69433;48.642;9.142;2023-07-20T09:14:08;96925.34;;;26.21;36.17
80124;BME280;69433;48.642;9.142;2023-07-20T09:19:14;96928.47;;;26.19;35.76
80124;BME280;69433;48.642;9.142;2023-07-20T09:21:40;96927.72;;;26.19;35.67
80124;BME280;69433;48.642;9.142;2023-07-20T09:24:06;96925.00;;;26.19;35.96
80124;BME280;69433;48.642;9.142;2023-07-20T09:26:40;96925.69;;;26.23;35.62
80124;BME280;69433;48.642;9.142;2023-07-20T09:29:07;96914.91;;;26.23;35.54
80124;BME280;69433;48.642;9.142;2023-07-20T09:31:32;96912.13;;;26.27;35.54
80124;BME280;69433;48.642;9.142;2023-07-20T09:33:58;96910.09;;;26.31;35.37
80124;BME280;69433;48.642;9.142;2023-07-20T09:36:24;96913.00;;;26.36;35.76
80124;BME280;69433;48.642;9.142;2023-07-20T09:38:51;96905.66;;;26.37;35.77
80124;BME280;69433;48.642;9.142;2023-07-20T09:41:17;96909.34;;;26.43;35.67
80124;BME280;69433;48.642;9.142;2023-07-20T09:43:45;96895.88;;;26.43;35.68
80124;BME280;69433;48.642;9.142;2023-07-20T09:46:10;96908.91;;;26.44;35.75
80124;BME280;69433;48.642;9.142;2023-07-20T09:48:36;96894.56;;;26.47;35.72
80124;BME280;69433;48.642;9.142;2023-07-20T09:51:01;96899.53;;;26.49;35.73
80124;BME280;69433;48.642;9.142;2023-07-20T09:53:30;96899.94;;;26.47;35.76
80124;BME280;69433;48.642;9.142;2023-07-20T09:56:02;96895.22;;;26.51;35.69
80124;BME280;69433;48.642;9.142;2023-07-20T09:58:28;96895.22;;;26.51;35.81
80124;BME280;69433;48.642;9.142;2023-07-20T10:00:56;96889.38;;;26.53;35.89
80124;BME280;69433;48.642;9.142;2023-07-20T10:03:27;96893.28;;;26.52;36.02
80124;BME280;69433;48.642;9.142;2023-07-20T10:06:00;96898.66;;;26.52;35.97
80124;BME280;69433;48.642;9.142;2023-07-20T10:08:29;96886.69;;;26.53;35.67
80124;BME280;69433;48.642;9.142;2023-07-20T10:10:57;96890.88;;;26.54;35.36
80124;BME280;69433;48.642;9.142;2023-07-20T10:13:29;96890.88;;;26.54;35.69
80124;BME280;69433;48.642;9.142;2023-07-20T10:16:01;96884.72;;;26.53;35.36
80124;BME280;69433;48.642;9.142;2023-07-20T10:21:30;96879.69;;;26.55;35.09
80124;BME280;69433;48.642;9.142;2023-07-20T10:23:59;96873.84;;;26.57;34.95
80124;BME280;69433;48.642;9.142;2023-07-20T10:26:25;96868.47;;;26.57;35.13
80124;BME280;69433;48.642;9.142;2023-07-20T10:28:51;96867.28;;;26.58;34.82
80124;BME280;69433;48.642;9.142;2023-07-20T10:31:17;96865.97;;;26.63;34.91
80124;BME280;69433;48.642;9.142;2023-07-20T10:33:43;96868.22;;;26.64;35.10
80124;BME280;69433;48.642;9.142;2023-07-20T10:36:09;96855.41;;;26.68;34.68
80124;BME280;69433;48.642;9.142;2023-07-20T10:41:22;96854.22;;;26.69;34.80
80124;BME280;69433;48.642;9.142;2023-07-20T10:44:02;96846.75;;;26.73;34.60
80124;BME280;69433;48.642;9.142;2023-07-20T10:46:44;96850.88;;;26.78;34.52
80124;BME280;69433;48.642;9.142;2023-07-20T10:49:11;96855.06;;;26.79;34.62
80124;BME280;69433;48.642;9.142;2023-07-20T10:56:56;96856.44;;;26.83;34.66
80124;BME280;69433;48.642;9.142;2023-07-20T11:01:59;96832.06;;;26.87;34.55
80124;BME280;69433;48.642;9.142;2023-07-20T11:04:39;96838.22;;;26.87;34.34
80124;BME280;69433;48.642;9.142;2023-07-20T11:07:05;96834.44;;;26.85;34.33
80124;BME280;69433;48.642;9.142;2023-07-20T11:09:38;96837.78;;;26.89;33.98
80124;BME280;69433;48.642;9.142;2023-07-20T11:12:13;96836.59;;;26.90;34.11
80124;BME280;69433;48.642;9.142;2023-07-20T11:14:53;96836.94;;;26.92;34.02
80124;BME280;69433;48.642;9.142;2023-07-20T11:17:19;96834.56;;;26.94;34.18
80124;BME280;69433;48.642;9.142;2023-07-20T11:19:48;96834.88;;;26.96;33.94
80124;BME280;69433;48.642;9.142;2023-07-20T11:22:16;96834.13;;;26.95;33.82
80124;BME280;69433;48.642;9.142;2023-07-20T11:24:42;96831.44;;;26.95;33.82
80124;BME280;69433;48.642;9.142;2023-07-20T11:27:08;96835.19;;;26.98;33.58
80124;BME280;69433;48.642;9.142;2023-07-20T11:29:34;96834.78;;;27.00;33.55
80124;BME280;69433;48.642;9.142;2023-07-20T11:32:01;96831.63;;;27.01;33.65
80124;BME280;69433;48.642;9.142;2023-07-20T11:34:30;96832.69;;;27.04;33.41
80124;BME280;69433;48.642;9.142;2023-07-20T11:36:56;96827.72;;;27.02;33.60
80124;BME280;69433;48.642;9.142;2023-07-20T11:39:22;96825.34;;;27.04;33.39
80124;BME280;69433;48.642;9.142;2023-07-20T11:41:54;96817.25;;;27.04;33.31
80124;BME280;69433;48.642;9.142;2023-07-20T11:44:24;96820.28;;;27.06;33.37
80124;BME280;69433;48.642;9.142;2023-07-20T11:47:04;96815.31;;;27.05;33.14
80124;BME280;69433;48.642;9.142;2023-07-20T11:49:37;96821.47;;;27.05;33.30
80124;BME280;69433;48.642;9.142;2023-07-20T11:52:05;96810.69;;;27.05;33.39
80124;BME280;69433;48.642;9.142;2023-07-20T11:54:45;96810.84;;;27.11;33.22
80124;BME280;69433;48.642;9.142;2023-07-20T11:57:18;96807.53;;;27.07;33.04
80124;BME280;69433;48.642;9.142;2023-07-20T12:00:02;96801.28;;;27.10;32.80
80124;BME280;69433;48.642;9.142;2023-07-20T12:02:37;96816.72;;;27.09;32.88
80124;BME280;69433;48.642;9.142;2023-07-20T12:05:04;96805.94;;;27.09;32.78
80124;BME280;69433;48.642;9.142;2023-07-20T12:07:35;96804.72;;;27.10;32.98
80124;BME280;69433;48.642;9.142;2023-07-20T12:10:05;96803.66;;;27.08;32.97
80124;BME280;69433;48.642;9.142;2023-07-20T12:12:32;96793.63;;;27.08;32.82
80124;BME280;69433;48.642;9.142;2023-07-20T12:15:29;96791.25;;;27.10;32.76
80124;BME280;69433;48.642;9.142;2023-07-20T12:18:01;96797.69;;;27.13;32.69
80124;BME280;69433;48.642;9.142;2023-07-20T12:20:31;96796.63;;;27.10;32.61
80124;BME280;69433;48.642;9.142;2023-07-20T12:23:03;96784.94;;;27.13;32.56
80124;BME280;69433;48.642;9.142;2023-07-20T12:25:48;96783.44;;;27.12;32.55
80124;BME280;69433;48.642;9.142;2023-07-20T12:28:20;96778.03;;;27.12;32.54
80124;BME280;69433;48.642;9.142;2023-07-20T12:30:46;96781.50;;;27.13;32.72
80124;BME280;69433;48.642;9.142;2023-07-20T12:33:14;96776.53;;;27.11;32.49
80124;BME280;69433;48.642;9.142;2023-07-20T12:35:41;96770.38;;;27.11;32.29
80124;BME280;69433;48.642;9.142;2023-07-20T12:38:06;96779.22;;;27.11;32.28
80124;BME280;69433;48.642;9.142;2023-07-20T12:40:31;96768.75;;;27.13;32.31
80124;BME280;69433;48.642;9.142;2023-07-20T12:42:57;96771.91;;;27.12;32.31
80124;BME280;69433;48.642;9.142;2023-07-20T12:45:23;96770.28;;;27.14;32.38
80124;BME280;69433;48.642;9.142;2023-07-20T12:47:48;96770.28;;;27.14;32.44
80124;BME280;69433;48.642;9.142;2023-07-20T12:50:13;96766.06;;;27.13;32.32
80124;BME280;69433;48.642;9.142;2023-07-20T12:52:39;96757.22;;;27.13;32.23
80124;BME280;69433;48.642;9.142;2023-07-20T12:55:06;96751.38;;;27.14;32.35
80124;BME280;69433;48.642;9.142;2023-07-20T12:57:34;96750.19;;;27.15;32.33
80124;BME280;69433;48.642;9.142;2023-07-20T12:59:59;96753.31;;;27.14;32.20
80124;BME280;69433;48.642;9.142;2023-07-20T13:02:25;96750.19;;;27.15;32.03
80124;BME280;69433;48.642;9.142;2023-07-20T13:04:50;96753.22;;;27.17;32.14
80124;BME280;69433;48.642;9.142;2023-07-20T13:07:29;96750.06;;;27.19;32.18
80124;BME280;69433;48.642;9.142;2023-07-20T13:09:55;96741.22;;;27.18;32.14
80124;BME280;69433;48.642;9.142;2023-07-20T13:12:20;96741.50;;;27.20;32.08
80124;BME280;69433;48.642;9.142;2023-07-20T13:14:45;96745.44;;;27.19;31.95
80124;BME280;69433;48.642;9.142;2023-07-20T13:17:10;96739.13;;;27.22;32.12
80124;BME280;69433;48.642;9.142;2023-07-20T13:19:36;96741.84;;;27.22;31.97
80124;BME280;69433;48.642;9.142;2023-07-20T13:22:02;96736.44;;;27.22;32.11